Ash Flat, Arkansas
Current Conditions -  °F | °C
As of 8:15 AM on Wednesday 28 Jan 2015 (Local Time) from KBVX Reporting Station
Clear Clear  
Wind Chill: 31°   Ceiling: Unl
Heat Index: 36°   Visibility: 7mi
Dew Point: 30°   Wind: 6mph
Humidity: 81%   Direction: 110°ESE
Pressure: 30.27"   Gusts: NA
Location:  36.22°N, 91.61°W
Report Text: KBVX 281415Z AUTO 11005KT 7SM CLR 02/M01 A3027 RMK AO1
Loading
Personal Weather Stations






























Interactive Weather Map New forecast layout! Learn more

10-Day Weather Forecast

Advertisements
Track Severe Weather on mobile